createdAt,value
2023-03-31T00:00:58.309Z,98566.38
2023-03-31T00:03:25.577Z,98561.53
2023-03-31T00:06:00.005Z,98552.94
2023-03-31T00:08:30.684Z,98570.47
2023-03-31T00:11:02.220Z,98561.69
2023-03-31T00:13:30.495Z,98555.66
2023-03-31T00:16:01.903Z,98558.84
2023-03-31T00:18:30.131Z,98569.88
2023-03-31T00:21:29.989Z,98557.50
2023-03-31T00:24:02.744Z,98570.41
2023-03-31T00:26:30.261Z,98566.31
2023-03-31T00:28:57.910Z,98554.09
2023-03-31T00:31:25.070Z,98559.63
2023-03-31T00:33:54.667Z,98550.56
2023-03-31T00:36:27.392Z,98554.97
2023-03-31T00:39:02.636Z,98561.19
2023-03-31T00:41:30.689Z,98541.75
2023-03-31T00:44:27.829Z,98516.91
2023-03-31T00:47:02.426Z,98556.03
2023-03-31T00:49:40.754Z,98532.53
2023-03-31T00:52:10.971Z,98560.72
2023-03-31T00:54:38.531Z,98527.41
2023-03-31T00:57:06.893Z,98549.47
2023-03-31T00:59:38.423Z,98519.53
2023-03-31T01:02:05.864Z,98529.06
2023-03-31T01:04:40.328Z,98545.00
2023-03-31T01:07:19.661Z,98548.81
2023-03-31T01:09:47.624Z,98532.34
2023-03-31T01:12:17.465Z,98537.78
2023-03-31T01:14:44.507Z,98517.19
2023-03-31T01:17:19.441Z,98498.41
2023-03-31T01:20:18.312Z,98520.88
2023-03-31T01:23:05.596Z,98514.63
2023-03-31T01:25:54.679Z,98514.97
2023-03-31T01:28:44.620Z,98510.00
2023-03-31T01:31:30.497Z,98515.28
2023-03-31T01:34:15.558Z,98479.88
2023-03-31T01:37:09.567Z,98501.97
2023-03-31T01:39:55.104Z,98497.34
2023-03-31T01:42:32.645Z,98496.06
2023-03-31T01:45:12.489Z,98498.09
2023-03-31T01:47:59.532Z,98497.91
2023-03-31T01:50:47.254Z,98502.88
2023-03-31T01:53:31.700Z,98499.84
2023-03-31T01:56:16.160Z,98492.38
2023-03-31T01:58:47.926Z,98502.91
2023-03-31T02:01:38.108Z,98503.19
2023-03-31T02:04:31.385Z,98502.59
2023-03-31T02:07:04.186Z,98481.69
2023-03-31T02:09:35.158Z,98499.59
2023-03-31T02:12:06.378Z,98484.75
2023-03-31T02:14:34.945Z,98480.63
2023-03-31T02:17:03.968Z,98481.81
2023-03-31T02:19:34.855Z,98479.22
2023-03-31T02:22:03.666Z,98483.72
2023-03-31T02:24:31.661Z,98491.47
2023-03-31T02:27:06.813Z,98477.78
2023-03-31T02:29:34.433Z,98500.03
2023-03-31T02:32:16.985Z,98480.31
2023-03-31T02:34:44.002Z,98477.06
2023-03-31T02:37:11.257Z,98470.88
2023-03-31T02:39:40.747Z,98496.06
2023-03-31T02:42:09.010Z,98510.44
2023-03-31T02:44:40.292Z,98502.16
2023-03-31T02:47:13.731Z,98515.63
2023-03-31T02:49:57.093Z,98498.66
2023-03-31T02:52:34.897Z,98509.03
2023-03-31T02:55:23.657Z,98493.72
2023-03-31T02:58:18.464Z,98501.31
2023-03-31T03:00:53.044Z,98498.06
2023-03-31T03:03:31.610Z,98495.09
2023-03-31T03:06:30.770Z,98499.38
2023-03-31T03:09:13.222Z,98505.31
2023-03-31T03:12:16.097Z,98498.41
2023-03-31T03:14:47.479Z,98496.56
2023-03-31T03:17:39.632Z,98495.25
2023-03-31T03:20:09.417Z,98482.25
2023-03-31T03:22:39.800Z,98480.78
2023-03-31T03:25:09.596Z,98475.34
2023-03-31T03:27:37.549Z,98477.47
2023-03-31T03:30:06.978Z,98467.41
2023-03-31T03:32:34.142Z,98446.19
2023-03-31T03:35:02.333Z,98462.84
2023-03-31T03:37:29.869Z,98456.75
2023-03-31T03:39:56.928Z,98457.88
2023-03-31T03:42:24.276Z,98462.34
2023-03-31T03:44:53.626Z,98439.44
2023-03-31T03:47:20.541Z,98455.72
2023-03-31T03:49:49.407Z,98438.94
2023-03-31T03:52:16.902Z,98447.63
2023-03-31T03:54:44.020Z,98446.44
2023-03-31T03:57:11.613Z,98432.13
2023-03-31T03:59:39.026Z,98437.09
2023-03-31T04:02:07.215Z,98430.75
2023-03-31T04:04:34.318Z,98414.44
2023-03-31T04:07:01.582Z,98424.31
2023-03-31T04:09:29.707Z,98403.09
2023-03-31T04:11:56.872Z,98425.78
2023-03-31T04:14:25.459Z,98413.44
2023-03-31T04:16:52.493Z,98422.81
2023-03-31T04:19:32.094Z,98392.53
2023-03-31T04:27:56.700Z,98398.69
2023-03-31T04:30:31.259Z,98371.59
2023-03-31T04:33:01.196Z,98391.44
2023-03-31T04:36:00.928Z,98388.13
2023-03-31T04:38:33.706Z,98384.31
2023-03-31T04:41:04.629Z,98394.53
2023-03-31T04:43:34.947Z,98397.81
2023-03-31T04:46:02.057Z,98390.19
2023-03-31T04:48:29.499Z,98385.28
2023-03-31T04:50:56.613Z,98403.75
2023-03-31T04:53:24.132Z,98405.16
2023-03-31T04:55:51.171Z,98385.84
2023-03-31T04:58:25.345Z,98386.34
2023-03-31T05:00:55.921Z,98370.91
2023-03-31T05:03:26.170Z,98395.31
2023-03-31T05:05:54.553Z,98394.69
2023-03-31T05:08:21.871Z,98401.03
2023-03-31T05:10:53.216Z,98398.72
2023-03-31T05:13:22.024Z,98388.22
2023-03-31T05:15:51.212Z,98389.25
2023-03-31T05:18:18.888Z,98404.81
2023-03-31T05:20:46.786Z,98391.31
2023-03-31T05:23:14.816Z,98397.91
2023-03-31T05:25:42.763Z,98389.94
2023-03-31T05:28:12.925Z,98380.06
2023-03-31T05:30:40.099Z,98401.25
2023-03-31T05:33:07.318Z,98395.81
2023-03-31T05:35:34.632Z,98393.00
2023-03-31T05:38:01.956Z,98382.78
2023-03-31T05:40:29.105Z,98389.97
2023-03-31T05:42:57.279Z,98378.19
2023-03-31T05:45:24.383Z,98387.72
2023-03-31T05:47:51.801Z,98375.56
2023-03-31T05:50:19.079Z,98387.97
2023-03-31T05:52:46.174Z,98372.84
2023-03-31T05:55:13.425Z,98371.47
2023-03-31T05:57:40.573Z,98366.66
2023-03-31T06:00:10.700Z,98367.09
2023-03-31T06:02:38.045Z,98362.03
2023-03-31T06:05:05.687Z,98360.13
2023-03-31T06:07:32.724Z,98371.81
2023-03-31T06:09:59.978Z,98351.75
2023-03-31T06:12:26.920Z,98357.56
2023-03-31T06:14:54.198Z,98341.81
2023-03-31T06:17:21.271Z,98354.91
2023-03-31T06:19:48.280Z,98366.22
2023-03-31T06:22:15.218Z,98386.34
2023-03-31T06:24:42.432Z,98366.94
2023-03-31T06:27:10.628Z,98344.50
2023-03-31T06:29:38.416Z,98347.81
2023-03-31T06:34:48.487Z,98357.41
2023-03-31T06:37:15.901Z,98347.44
2023-03-31T06:39:44.728Z,98370.00
2023-03-31T06:42:12.119Z,98373.69
2023-03-31T06:44:41.082Z,98367.44
2023-03-31T06:47:08.116Z,98365.59
2023-03-31T06:49:42.276Z,98369.63
2023-03-31T06:52:09.296Z,98364.59
2023-03-31T06:54:36.282Z,98359.69
2023-03-31T06:57:03.422Z,98353.06
2023-03-31T06:59:30.473Z,98335.47
2023-03-31T07:01:57.620Z,98341.41
2023-03-31T07:04:24.667Z,98334.84
2023-03-31T07:06:51.706Z,98354.38
2023-03-31T07:09:18.953Z,98346.59
2023-03-31T07:11:46.105Z,98358.69
2023-03-31T07:14:13.056Z,98352.75
2023-03-31T07:16:40.068Z,98350.28
2023-03-31T07:19:08.232Z,98337.78
2023-03-31T07:21:35.151Z,98342.34
2023-03-31T07:24:02.104Z,98327.38
2023-03-31T07:26:29.126Z,98350.34
2023-03-31T07:28:57.571Z,98330.66
2023-03-31T07:31:26.106Z,98345.41
2023-03-31T07:33:55.240Z,98339.09
2023-03-31T07:36:24.260Z,98332.47
2023-03-31T07:38:51.878Z,98337.22
2023-03-31T07:41:21.082Z,98335.19
2023-03-31T07:43:49.264Z,98318.19
2023-03-31T07:46:23.367Z,98345.03
2023-03-31T07:48:50.789Z,98335.84
2023-03-31T07:51:20.875Z,98330.75
2023-03-31T07:53:49.617Z,98349.94
2023-03-31T07:56:17.424Z,98344.41
2023-03-31T07:58:47.150Z,98313.84
2023-03-31T08:01:19.182Z,98325.31
2023-03-31T08:03:47.620Z,98330.03
2023-03-31T08:06:23.862Z,98337.44
2023-03-31T08:08:51.602Z,98329.06
2023-03-31T08:11:19.775Z,98330.66
2023-03-31T08:13:47.193Z,98318.19
2023-03-31T08:16:16.639Z,98310.25
2023-03-31T08:18:43.809Z,98309.47
2023-03-31T08:21:11.091Z,98299.03
2023-03-31T08:23:38.220Z,98302.28
2023-03-31T08:26:16.405Z,98289.78
2023-03-31T08:28:46.375Z,98284.69
2023-03-31T08:31:16.529Z,98291.63
2023-03-31T08:33:43.765Z,98284.28
2023-03-31T08:36:11.429Z,98277.94
2023-03-31T08:38:41.924Z,98263.44
2023-03-31T08:41:27.068Z,98259.34
2023-03-31T08:43:56.656Z,98259.97
2023-03-31T08:46:23.844Z,98282.06
2023-03-31T08:48:55.108Z,98251.38
2023-03-31T08:51:33.333Z,98250.38
2023-03-31T08:54:04.002Z,98264.25
2023-03-31T08:56:38.265Z,98269.59
2023-03-31T08:59:07.127Z,98250.56
2023-03-31T09:01:58.459Z,98269.59
2023-03-31T09:04:56.334Z,98262.22
2023-03-31T09:07:52.749Z,98257.91
2023-03-31T09:10:19.851Z,98248.28
2023-03-31T09:13:31.636Z,98248.91
2023-03-31T09:16:24.476Z,98242.59
2023-03-31T09:18:54.667Z,98247.91
2023-03-31T09:21:28.167Z,98246.66
2023-03-31T09:24:04.187Z,98217.00
2023-03-31T09:26:38.167Z,98233.19
2023-03-31T09:29:10.619Z,98212.31
2023-03-31T09:31:39.004Z,98231.72
2023-03-31T09:34:14.582Z,98224.56
2023-03-31T09:36:42.442Z,98211.91
2023-03-31T09:39:17.887Z,98210.22
2023-03-31T09:41:47.742Z,98194.69
2023-03-31T09:44:39.318Z,98199.53
2023-03-31T09:47:39.178Z,98202.19
2023-03-31T09:50:08.116Z,98185.81
2023-03-31T09:52:41.149Z,98192.72
2023-03-31T09:55:38.393Z,98183.34
2023-03-31T09:58:08.323Z,98199.50
2023-03-31T10:00:35.704Z,98206.47
2023-03-31T10:03:07.822Z,98178.06
2023-03-31T10:05:43.084Z,98196.06
2023-03-31T10:08:26.122Z,98195.03
2023-03-31T10:10:58.846Z,98184.81
2023-03-31T10:13:29.503Z,98167.03
2023-03-31T10:16:09.109Z,98169.06
2023-03-31T10:18:41.978Z,98185.22
2023-03-31T10:21:27.631Z,98168.84
2023-03-31T10:23:55.632Z,98158.25
2023-03-31T10:26:29.303Z,98171.94
2023-03-31T10:28:56.490Z,98166.81
2023-03-31T10:31:27.518Z,98175.38
2023-03-31T10:33:55.710Z,98150.00
2023-03-31T10:36:28.120Z,98161.41
2023-03-31T10:38:56.084Z,98169.56
2023-03-31T10:41:26.472Z,98128.47
2023-03-31T10:43:55.887Z,98156.03
2023-03-31T10:46:44.394Z,98161.53
2023-03-31T10:49:27.886Z,98150.56
2023-03-31T10:51:57.796Z,98154.28
2023-03-31T10:54:25.532Z,98137.53
2023-03-31T10:56:58.726Z,98144.91
2023-03-31T10:59:38.120Z,98144.06
2023-03-31T11:02:11.466Z,98138.38
2023-03-31T11:05:05.985Z,98133.06
2023-03-31T11:07:39.100Z,98128.75
2023-03-31T11:10:21.304Z,98123.03
2023-03-31T11:13:00.603Z,98129.53
2023-03-31T11:15:42.708Z,98123.00
2023-03-31T11:18:33.753Z,98115.25
2023-03-31T11:21:26.600Z,98107.81
2023-03-31T11:24:10.208Z,98099.03
2023-03-31T11:26:57.504Z,98101.44
2023-03-31T11:29:36.221Z,98104.91
2023-03-31T11:32:34.218Z,98108.59
2023-03-31T11:35:33.120Z,98112.06
2023-03-31T11:38:24.785Z,98101.00
2023-03-31T11:41:00.138Z,98101.19
2023-03-31T11:43:51.912Z,98099.38
2023-03-31T11:46:48.241Z,98099.91
2023-03-31T11:49:38.405Z,98084.03
2023-03-31T11:52:19.617Z,98092.19
2023-03-31T11:55:03.084Z,98087.94
2023-03-31T11:57:38.526Z,98066.88
2023-03-31T12:00:19.224Z,98089.13
2023-03-31T12:03:08.284Z,98089.34
2023-03-31T12:05:45.052Z,98079.50
2023-03-31T12:08:19.673Z,98049.50
2023-03-31T12:11:28.914Z,98078.66
2023-03-31T12:14:17.753Z,98078.25
2023-03-31T12:16:58.461Z,98061.06
2023-03-31T12:19:34.802Z,98068.06
2023-03-31T12:22:12.684Z,98051.09
2023-03-31T12:24:39.703Z,98056.53
2023-03-31T12:27:18.762Z,98061.06
2023-03-31T12:29:51.943Z,98054.31
2023-03-31T12:32:22.205Z,98050.66
2023-03-31T12:35:04.074Z,98049.25
2023-03-31T12:38:08.569Z,98046.41
2023-03-31T12:41:07.747Z,98051.72
2023-03-31T12:44:01.724Z,98044.56
2023-03-31T12:47:11.341Z,98037.44
2023-03-31T12:50:00.888Z,98026.63
2023-03-31T12:52:48.290Z,98030.88
2023-03-31T12:55:41.178Z,98027.16
2023-03-31T12:58:32.623Z,98023.91
2023-03-31T13:01:17.564Z,98020.25
2023-03-31T13:03:55.268Z,98028.84
2023-03-31T13:06:29.063Z,98016.97
2023-03-31T13:09:11.570Z,98021.69
2023-03-31T13:11:43.264Z,98013.34
2023-03-31T13:14:24.737Z,98014.94
2023-03-31T13:16:55.567Z,98022.72
2023-03-31T13:19:33.274Z,98008.00
2023-03-31T13:22:02.338Z,98015.13
2023-03-31T13:24:31.334Z,98018.00
2023-03-31T13:27:01.152Z,98008.00
2023-03-31T13:29:43.854Z,98013.50
2023-03-31T13:32:20.981Z,98019.25
2023-03-31T13:34:59.359Z,98010.91
2023-03-31T13:37:47.975Z,98007.91
2023-03-31T13:40:41.314Z,98006.47
2023-03-31T13:43:28.231Z,98008.47
2023-03-31T13:46:04.263Z,98001.34
2023-03-31T13:48:40.539Z,97997.25
2023-03-31T13:51:14.481Z,98006.44
2023-03-31T13:54:06.164Z,98001.09
2023-03-31T13:57:14.381Z,98003.38
2023-03-31T14:00:17.223Z,98002.97
2023-03-31T14:03:02.601Z,97999.31
2023-03-31T14:05:47.453Z,97999.94
2023-03-31T14:08:27.426Z,97977.13
2023-03-31T14:10:54.993Z,97978.31
2023-03-31T14:13:25.878Z,97976.28
2023-03-31T14:16:02.497Z,97970.13
2023-03-31T14:18:33.987Z,97976.28
2023-03-31T14:21:29.287Z,97992.16
2023-03-31T14:24:23.671Z,97985.66
2023-03-31T14:26:59.074Z,97974.03
2023-03-31T14:29:46.086Z,97974.41
2023-03-31T14:32:33.498Z,97982.81
2023-03-31T14:38:29.821Z,97968.69
2023-03-31T14:41:05.455Z,97974.84
2023-03-31T14:43:37.305Z,97957.53
2023-03-31T14:46:09.096Z,97974.84
2023-03-31T14:48:47.555Z,97966.66
2023-03-31T14:51:28.836Z,97969.53
2023-03-31T14:57:03.166Z,97952.22
2023-03-31T14:59:33.899Z,97956.13
2023-03-31T15:02:02.942Z,97962.81
2023-03-31T15:04:41.998Z,97952.66
2023-03-31T15:07:10.266Z,97959.81
2023-03-31T15:09:37.899Z,97971.25
2023-03-31T15:12:15.149Z,97975.53
2023-03-31T15:15:04.156Z,97955.94
2023-03-31T15:17:37.881Z,97968.19
2023-03-31T15:20:26.060Z,97976.75
2023-03-31T15:22:53.760Z,97969.00
2023-03-31T15:25:22.482Z,97962.88
2023-03-31T15:28:03.067Z,97952.28
2023-03-31T15:30:31.118Z,97951.25
2023-03-31T15:35:47.041Z,97950.25
2023-03-31T15:38:19.750Z,97967.97
2023-03-31T15:40:53.763Z,97941.28
2023-03-31T15:43:32.427Z,97952.72
2023-03-31T15:46:02.951Z,97968.81
2023-03-31T15:48:34.325Z,97959.03
2023-03-31T15:51:02.806Z,97961.69
2023-03-31T15:53:37.953Z,97959.22
2023-03-31T15:56:05.454Z,97949.06
2023-03-31T15:58:55.478Z,97973.94
2023-03-31T16:01:23.568Z,97953.53
2023-03-31T16:03:53.872Z,97959.88
2023-03-31T16:06:24.186Z,97969.84
2023-03-31T16:09:09.099Z,97969.88
2023-03-31T16:11:49.411Z,97973.75
2023-03-31T16:14:24.141Z,97971.69
2023-03-31T16:16:57.379Z,97978.47
2023-03-31T16:19:25.592Z,97955.19
2023-03-31T16:21:55.187Z,97981.72
2023-03-31T16:24:30.284Z,97953.53
2023-03-31T16:27:08.954Z,97952.53
2023-03-31T16:29:37.752Z,97967.41
2023-03-31T16:32:13.415Z,97945.16
2023-03-31T16:35:02.797Z,97972.94
2023-03-31T16:37:33.796Z,97973.97
2023-03-31T16:40:01.631Z,97970.69
2023-03-31T16:42:29.041Z,97960.53
2023-03-31T16:45:13.138Z,97972.16
2023-03-31T16:47:54.816Z,97962.19
2023-03-31T16:50:25.148Z,97969.50
2023-03-31T16:53:22.079Z,97971.97
2023-03-31T16:55:52.214Z,97977.47
2023-03-31T16:58:51.891Z,97967.06
2023-03-31T17:01:22.935Z,97962.78
2023-03-31T17:06:43.427Z,97949.50
2023-03-31T17:12:00.126Z,97946.66
2023-03-31T17:14:38.319Z,97961.34
2023-03-31T17:17:05.627Z,97960.56
2023-03-31T17:19:34.906Z,97944.44
2023-03-31T17:22:04.519Z,97940.53
2023-03-31T17:24:34.439Z,97958.50
2023-03-31T17:27:16.833Z,97957.47
2023-03-31T17:29:44.243Z,97949.50
2023-03-31T17:32:14.996Z,97924.19
2023-03-31T17:34:42.830Z,97943.38
2023-03-31T17:37:11.163Z,97934.81
2023-03-31T17:39:38.859Z,97943.97
2023-03-31T17:42:10.466Z,97951.53
2023-03-31T17:44:40.967Z,97941.72
2023-03-31T17:47:21.599Z,97944.59
2023-03-31T17:49:59.969Z,97938.66
2023-03-31T17:52:45.696Z,97915.59
2023-03-31T17:55:16.124Z,97926.44
2023-03-31T17:57:46.369Z,97953.97
2023-03-31T18:00:21.598Z,97949.47
2023-03-31T18:02:51.352Z,97919.91
2023-03-31T18:05:22.528Z,97948.06
2023-03-31T18:07:52.296Z,97947.66
2023-03-31T18:10:22.375Z,97914.19
2023-03-31T18:12:52.028Z,97942.56
2023-03-31T18:15:22.599Z,97932.13
2023-03-31T18:17:50.771Z,97930.69
2023-03-31T18:20:29.304Z,97915.00
2023-03-31T18:22:59.248Z,97913.19
2023-03-31T18:25:33.414Z,97917.03
2023-03-31T18:28:04.294Z,97921.72
2023-03-31T18:34:45.818Z,97904.41
2023-03-31T18:37:36.698Z,97920.09
2023-03-31T18:40:08.008Z,97922.97
2023-03-31T18:42:46.064Z,97907.44
2023-03-31T18:45:18.230Z,97930.09
2023-03-31T18:47:51.034Z,97913.97
2023-03-31T18:50:33.484Z,97932.75
2023-03-31T18:53:19.534Z,97904.78
2023-03-31T18:56:13.864Z,97902.91
2023-03-31T18:58:52.328Z,97903.09
2023-03-31T19:01:29.650Z,97901.28
2023-03-31T19:07:45.722Z,97889.06
2023-03-31T19:10:14.601Z,97897.41
2023-03-31T19:12:49.338Z,97873.50
2023-03-31T19:15:16.697Z,97896.97
2023-03-31T19:17:48.324Z,97895.97
2023-03-31T19:20:21.723Z,97873.75
2023-03-31T19:22:52.373Z,97881.28
2023-03-31T19:25:24.638Z,97900.25
2023-03-31T19:28:02.128Z,97861.31
2023-03-31T19:30:29.395Z,97883.31
2023-03-31T19:32:56.942Z,97884.34
2023-03-31T19:35:29.599Z,97896.59
2023-03-31T19:37:57.796Z,97885.81
2023-03-31T19:40:33.680Z,97877.44
2023-03-31T19:43:27.222Z,97871.69
2023-03-31T19:45:57.741Z,97904.97
2023-03-31T19:48:28.336Z,97880.69
2023-03-31T19:51:04.482Z,97901.09
2023-03-31T19:53:43.787Z,97889.06
2023-03-31T19:56:19.790Z,97886.00
2023-03-31T19:58:48.400Z,97887.63
2023-03-31T20:01:19.418Z,97866.00
2023-03-31T20:03:47.052Z,97884.16
2023-03-31T20:06:15.244Z,97854.16
2023-03-31T20:08:44.952Z,97871.50
2023-03-31T20:11:14.359Z,97879.25
2023-03-31T20:13:42.925Z,97865.78
2023-03-31T20:16:20.552Z,97874.16
2023-03-31T20:19:02.388Z,97873.75
2023-03-31T20:21:40.933Z,97866.19
2023-03-31T20:24:08.657Z,97855.81
2023-03-31T20:26:35.823Z,97878.25
2023-03-31T20:29:03.934Z,97856.38
2023-03-31T20:31:37.632Z,97859.84
2023-03-31T20:34:06.823Z,97852.53
2023-03-31T20:36:33.985Z,97863.13
2023-03-31T20:39:05.724Z,97859.03
2023-03-31T20:41:33.904Z,97860.50
2023-03-31T20:44:01.743Z,97864.97
2023-03-31T20:46:29.677Z,97857.00
2023-03-31T20:48:58.209Z,97869.47
2023-03-31T20:51:30.831Z,97873.59
2023-03-31T20:54:02.073Z,97861.72
2023-03-31T20:56:31.962Z,97867.47
2023-03-31T20:58:59.908Z,97867.25
2023-03-31T21:01:30.162Z,97862.13
2023-03-31T21:04:02.219Z,97867.44
2023-03-31T21:06:32.800Z,97854.59
2023-03-31T21:09:00.146Z,97864.59
2023-03-31T21:11:27.700Z,97858.66
2023-03-31T21:13:54.894Z,97842.53
2023-03-31T21:16:22.563Z,97860.09
2023-03-31T21:18:55.125Z,97850.69
2023-03-31T21:21:24.630Z,97838.69
2023-03-31T21:23:52.360Z,97869.94
2023-03-31T21:26:20.887Z,97856.25
2023-03-31T21:28:50.078Z,97862.38
2023-03-31T21:31:18.916Z,97860.13
2023-03-31T21:33:47.153Z,97854.44
2023-03-31T21:36:16.577Z,97862.78
2023-03-31T21:38:44.826Z,97860.53
2023-03-31T21:41:19.376Z,97872.00
2023-03-31T21:43:47.237Z,97873.59
2023-03-31T21:46:24.409Z,97855.66
2023-03-31T21:48:51.578Z,97858.31
2023-03-31T21:51:22.000Z,97869.53
2023-03-31T21:53:50.181Z,97867.69
2023-03-31T21:56:17.734Z,97848.31
2023-03-31T21:58:44.809Z,97837.72
2023-03-31T22:01:12.326Z,97851.16
2023-03-31T22:03:41.361Z,97873.81
2023-03-31T22:06:10.006Z,97861.97
2023-03-31T22:08:39.079Z,97853.22
2023-03-31T22:11:07.684Z,97834.84
2023-03-31T22:13:36.537Z,97847.28
2023-03-31T22:16:05.104Z,97849.13
2023-03-31T22:18:32.415Z,97858.09
2023-03-31T22:21:01.020Z,97850.16
2023-03-31T22:23:28.048Z,97854.44
2023-03-31T22:25:55.613Z,97851.78
2023-03-31T22:28:22.614Z,97851.16
2023-03-31T22:30:49.618Z,97855.66
2023-03-31T22:33:16.827Z,97846.88
2023-03-31T22:35:44.364Z,97844.84
2023-03-31T22:38:14.014Z,97852.00
2023-03-31T22:40:41.473Z,97852.38
2023-03-31T22:43:08.736Z,97843.63
2023-03-31T22:45:38.006Z,97846.47
2023-03-31T22:48:07.292Z,97839.13
2023-03-31T22:50:34.490Z,97840.97
2023-03-31T22:53:04.420Z,97838.50
2023-03-31T22:55:33.836Z,97846.66
2023-03-31T22:58:01.544Z,97838.09
2023-03-31T23:01:01.233Z,97839.31
2023-03-31T23:03:28.431Z,97837.69
2023-03-31T23:05:55.373Z,97834.03
2023-03-31T23:08:23.054Z,97833.59
2023-03-31T23:11:00.045Z,97832.59
2023-03-31T23:13:28.375Z,97825.25
2023-03-31T23:15:58.412Z,97825.06
2023-03-31T23:18:25.777Z,97835.69
2023-03-31T23:20:52.759Z,97831.81
2023-03-31T23:23:19.741Z,97823.84
2023-03-31T23:25:46.676Z,97823.00
2023-03-31T23:28:13.807Z,97821.78
2023-03-31T23:30:41.376Z,97829.53
2023-03-31T23:33:09.727Z,97828.75
2023-03-31T23:35:36.850Z,97824.25
2023-03-31T23:38:05.062Z,97824.03
2023-03-31T23:40:31.993Z,97824.66
2023-03-31T23:42:59.022Z,97817.31
2023-03-31T23:45:25.857Z,97825.47
2023-03-31T23:47:52.900Z,97824.03
2023-03-31T23:50:19.959Z,97828.94
2023-03-31T23:52:47.115Z,97829.53
2023-03-31T23:55:14.055Z,97838.53
2023-03-31T23:57:41.536Z,97829.53
